Time;durP1;ratioP1;P1;durP2;ratioP2;P2;SDS_P1;SDS_P2;PMS_P1;PMS_P2;Temp;Humidity;BMP_temperature;BMP_pressure;BME280_temperature;BME280_humidity;BME280_pressure;Samples;Min_cycle;Max_cycle;Signal;HPM_P1;HPM_P2
2021/12/07 00:00:23;;;;;;;18.23;10.90;;;1.20;1.00;;;;;;5034522;28;20195;-71
2021/12/07 00:02:49;;;;;;;17.90;9.70;;;1.20;1.00;;;;;;5033959;28;20207;-72
2021/12/07 00:05:16;;;;;;;14.55;8.50;;;1.20;1.00;;;;;;5034779;28;20222;-71
2021/12/07 00:07:43;;;;;;;18.15;10.82;;;1.20;1.00;;;;;;5034699;28;20187;-72
2021/12/07 00:10:10;;;;;;;14.88;9.35;;;1.20;1.00;;;;;;5034660;28;20731;-72
2021/12/07 00:12:39;;;;;;;18.90;11.15;;;1.20;1.00;;;;;;5033804;28;20159;-74
2021/12/07 00:15:06;;;;;;;16.27;10.43;;;1.10;1.00;;;;;;5034670;28;20167;-72
2021/12/07 00:17:33;;;;;;;13.88;9.45;;;1.10;1.00;;;;;;5034539;28;20164;-72
2021/12/07 00:20:00;;;;;;;16.38;10.30;;;1.10;1.00;;;;;;5034164;28;20502;-72
2021/12/07 00:22:26;;;;;;;15.70;11.60;;;1.10;1.00;;;;;;5033400;28;20168;-72
2021/12/07 00:24:53;;;;;;;15.77;8.93;;;1.20;1.00;;;;;;5034462;28;20194;-71
2021/12/07 00:27:19;;;;;;;15.82;7.60;;;1.20;1.00;;;;;;5034438;28;20633;-71
2021/12/07 00:29:45;;;;;;;11.60;8.77;;;1.10;1.00;;;;;;5034232;28;20168;-73
2021/12/07 00:32:32;;;;;;;15.70;10.73;;;1.10;1.00;;;;;;5033358;28;20213;-71
2021/12/07 00:37:28;;;;;;;20.35;9.82;;;1.20;99.90;;;;;;5034167;28;20178;-72
2021/12/07 00:39:54;;;;;;;12.32;8.02;;;1.10;99.90;;;;;;5033767;28;20172;-73
2021/12/07 00:42:20;;;;;;;15.83;9.20;;;1.10;99.90;;;;;;5033282;28;20187;-72
2021/12/07 00:44:47;;;;;;;13.77;11.07;;;1.10;99.90;;;;;;5034057;28;20395;-72
2021/12/07 00:47:12;;;;;;;11.68;7.82;;;1.00;99.90;;;;;;5033895;28;20192;-72
2021/12/07 00:49:38;;;;;;;12.13;9.13;;;1.00;99.90;;;;;;5033946;28;20263;-71
2021/12/07 00:52:05;;;;;;;15.90;8.10;;;1.00;99.90;;;;;;5032881;28;20222;-73
2021/12/07 00:54:30;;;;;;;18.13;10.95;;;1.00;99.90;;;;;;5033774;28;20895;-72
2021/12/07 00:56:56;;;;;;;13.60;8.70;;;1.00;99.90;;;;;;5032827;28;20206;-71
2021/12/07 00:59:22;;;;;;;17.43;8.70;;;1.10;99.90;;;;;;5033757;28;20506;-71
2021/12/07 01:01:48;;;;;;;12.67;8.57;;;1.10;99.90;;;;;;5033575;28;20536;-73
2021/12/07 01:04:14;;;;;;;12.23;9.37;;;1.10;99.90;;;;;;5031490;28;20183;-72
2021/12/07 01:09:26;;;;;;;10.73;8.48;;;1.10;99.90;;;;;;5033856;28;20406;-72
2021/12/07 01:25:29;;;;;;;15.70;8.82;;;1.00;99.90;;;;;;5033315;28;20234;-72
2021/12/07 01:27:58;;;;;;;19.20;9.88;;;1.00;99.90;;;;;;5033206;28;20222;-73
2021/12/07 01:52:21;;;;;;;13.85;9.27;;;1.10;1.00;;;;;;5032255;28;20341;-72
2021/12/07 02:00:13;;;;;;;15.75;10.20;;;1.00;1.00;;;;;;5033137;28;20179;-72
2021/12/07 02:02:39;;;;;;;12.05;8.30;;;1.00;1.00;;;;;;5030718;28;20548;-72
2021/12/07 02:05:06;;;;;;;12.60;8.07;;;1.00;1.00;;;;;;5033017;28;20175;-72
2021/12/07 02:07:32;;;;;;;18.05;9.25;;;1.00;1.00;;;;;;5035544;28;20179;-71
2021/12/07 02:10:04;;;;;;;16.77;9.27;;;1.00;1.00;;;;;;5036463;28;20656;-73
2021/12/07 02:12:32;;;;;;;18.67;9.05;;;1.00;1.00;;;;;;5035820;28;20168;-72
2021/12/07 02:14:58;;;;;;;17.48;10.32;;;1.00;1.00;;;;;;5036776;28;20175;-71
2021/12/07 02:17:26;;;;;;;17.17;8.10;;;1.00;1.00;;;;;;5036803;28;20506;-71
2021/12/07 02:19:51;;;;;;;15.13;8.07;;;1.00;1.00;;;;;;5036891;28;20171;-71
2021/12/07 02:22:18;;;;;;;14.07;9.20;;;1.00;1.00;;;;;;5035847;28;20167;-72
2021/12/07 02:24:45;;;;;;;17.13;9.30;;;1.00;1.00;;;;;;5036581;28;20249;-72
2021/12/07 02:27:11;;;;;;;11.10;7.65;;;0.90;1.00;;;;;;5036388;28;20656;-71
2021/12/07 02:29:37;;;;;;;16.63;11.27;;;1.00;1.00;;;;;;5036169;28;20226;-72
2021/12/07 02:32:04;;;;;;;14.17;8.80;;;1.00;1.00;;;;;;5034237;28;20230;-71
2021/12/07 02:34:30;;;;;;;14.52;8.13;;;1.00;1.00;;;;;;5036643;28;20607;-71
2021/12/07 02:36:56;;;;;;;12.13;8.63;;;1.00;1.00;;;;;;5036313;28;20191;-72
2021/12/07 02:39:31;;;;;;;15.73;8.60;;;1.00;1.00;;;;;;5036436;28;20168;-72
2021/12/07 02:41:57;;;;;;;10.00;8.40;;;1.00;1.00;;;;;;5036097;28;20171;-72
2021/12/07 02:44:23;;;;;;;16.67;10.37;;;0.90;1.00;;;;;;5035855;28;20171;-71
2021/12/07 02:46:48;;;;;;;18.03;11.00;;;0.90;1.00;;;;;;5036128;28;20278;-72
2021/12/07 02:49:15;;;;;;;14.20;9.17;;;0.90;1.00;;;;;;5035481;28;20172;-72
2021/12/07 02:51:40;;;;;;;25.25;10.15;;;0.90;1.00;;;;;;5036157;28;20684;-73
2021/12/07 02:54:06;;;;;;;16.07;10.30;;;0.90;1.00;;;;;;5033980;28;20262;-71
2021/12/07 02:56:32;;;;;;;13.33;6.63;;;1.00;1.00;;;;;;5035980;28;20189;-72
2021/12/07 02:59:01;;;;;;;14.30;9.53;;;0.90;1.00;;;;;;5036016;28;20197;-72
2021/12/07 03:01:32;;;;;;;11.25;7.13;;;0.90;1.00;;;;;;5036018;28;20175;-72
2021/12/07 03:04:11;;;;;;;18.17;8.27;;;0.90;1.00;;;;;;5035074;28;20174;-72
2021/12/07 03:07:11;;;;;;;18.45;9.38;;;0.90;1.00;;;;;;5035352;28;20187;-72
2021/12/07 03:25:49;;;;;;;19.52;7.97;;;0.90;1.00;;;;;;5035888;28;20164;-71
2021/12/07 03:26:27;;;;;;;20.50;9.90;;;0.90;1.00;;;;;;5035292;28;20226;-72
2021/12/07 03:28:55;;;;;;;27.07;12.47;;;0.90;1.00;;;;;;5035207;28;20199;-71
2021/12/07 03:31:21;;;;;;;16.38;11.00;;;0.90;1.00;;;;;;5035342;28;20533;-72
2021/12/07 03:33:47;;;;;;;15.45;10.40;;;0.90;1.00;;;;;;5034613;28;20290;-73
2021/12/07 03:36:14;;;;;;;15.23;8.98;;;0.80;1.00;;;;;;5035324;28;20226;-72
2021/12/07 03:38:40;;;;;;;18.67;12.52;;;0.80;1.00;;;;;;5035328;28;20579;-70
2021/12/07 03:41:07;;;;;;;20.35;11.65;;;0.90;1.00;;;;;;5035333;28;20164;-72
2021/12/07 03:43:33;;;;;;;18.60;10.95;;;0.90;1.00;;;;;;5034350;28;20266;-72
2021/12/07 03:46:00;;;;;;;15.70;9.43;;;0.80;1.00;;;;;;5034589;28;20187;-72
2021/12/07 03:48:26;;;;;;;15.38;9.70;;;0.80;1.00;;;;;;5035201;28;20163;-72
2021/12/07 03:50:52;;;;;;;16.27;9.63;;;0.90;1.00;;;;;;5034938;28;20239;-72
2021/12/07 03:53:18;;;;;;;13.30;10.70;;;0.90;1.00;;;;;;5034130;28;20187;-71
2021/12/07 03:55:44;;;;;;;23.93;9.90;;;0.90;1.00;;;;;;5035020;28;20509;-70
2021/12/07 03:58:10;;;;;;;17.73;9.63;;;0.90;1.00;;;;;;5035067;28;20407;-71
2021/12/07 04:00:40;;;;;;;20.23;9.35;;;0.90;1.00;;;;;;5035001;28;20176;-72
2021/12/07 04:03:10;;;;;;;22.58;9.38;;;0.90;1.00;;;;;;5032256;28;20265;-69
2021/12/07 04:05:44;;;;;;;24.15;11.20;;;0.90;1.00;;;;;;5034676;28;20245;-72
2021/12/07 04:08:12;;;;;;;12.30;7.25;;;0.90;1.00;;;;;;5034789;28;20563;-72
2021/12/07 04:10:37;;;;;;;18.35;10.77;;;0.90;1.00;;;;;;5034645;28;20206;-73
2021/12/07 04:13:03;;;;;;;19.53;9.90;;;0.90;1.00;;;;;;5033899;28;20171;-72
2021/12/07 04:15:29;;;;;;;16.03;12.03;;;0.90;1.00;;;;;;5033155;28;20672;-71
2021/12/07 04:17:55;;;;;;;15.17;10.73;;;0.90;1.00;;;;;;5034295;28;20167;-69
2021/12/07 04:20:21;;;;;;;19.63;9.90;;;0.90;1.00;;;;;;5034364;28;20410;-72
2021/12/07 04:22:47;;;;;;;20.00;11.80;;;0.90;1.00;;;;;;5032272;28;20176;-72
2021/12/07 04:25:15;;;;;;;21.30;10.85;;;0.90;1.00;;;;;;5034460;28;20202;-70
2021/12/07 04:27:42;;;;;;;19.05;10.70;;;0.90;1.00;;;;;;5034440;28;20266;-72
2021/12/07 04:30:12;;;;;;;18.92;9.70;;;0.90;1.00;;;;;;5033243;28;20199;-68
2021/12/07 04:32:38;;;;;;;21.85;11.45;;;0.90;1.00;;;;;;5033364;28;20176;-69
2021/12/07 04:35:04;;;;;;;17.63;10.85;;;0.90;1.00;;;;;;5034352;28;20168;-72
2021/12/07 04:37:30;;;;;;;16.65;10.38;;;0.90;1.00;;;;;;5033896;28;20203;-69
2021/12/07 04:39:56;;;;;;;23.60;10.10;;;0.90;1.00;;;;;;5033673;28;20653;-69
2021/12/07 04:42:23;;;;;;;21.60;8.53;;;1.00;1.00;;;;;;5033270;28;20187;-69
2021/12/07 04:44:53;;;;;;;17.17;9.40;;;0.90;1.00;;;;;;5034036;28;20198;-69
2021/12/07 04:58:08;;;;;;;21.00;10.70;;;1.00;1.00;;;;;;5033218;28;20214;-69
2021/12/07 05:00:35;;;;;;;15.63;10.93;;;1.10;1.00;;;;;;5033774;28;20576;-72
2021/12/07 05:03:05;;;;;;;19.42;9.95;;;1.10;1.00;;;;;;5033085;28;20684;-68
2021/12/07 05:05:36;;;;;;;19.38;10.45;;;1.10;1.00;;;;;;5033454;28;20259;-72
2021/12/07 05:08:06;;;;;;;21.70;11.77;;;1.10;1.00;;;;;;5033544;28;20262;-69
2021/12/07 05:10:38;;;;;;;19.33;12.30;;;1.10;1.00;;;;;;5033550;28;20196;-72
2021/12/07 05:39:42;;;;;;;18.88;10.52;;;1.10;1.00;;;;;;5033362;28;20229;-73
2021/12/07 05:42:08;;;;;;;18.47;12.37;;;1.10;1.00;;;;;;5031770;28;20641;-73
2021/12/07 05:44:34;;;;;;;19.37;11.90;;;1.20;1.00;;;;;;5033097;28;20402;-72
2021/12/07 05:46:59;;;;;;;17.80;11.17;;;1.20;1.00;;;;;;5032998;28;20429;-68
2021/12/07 05:49:25;;;;;;;21.40;10.67;;;1.20;1.00;;;;;;5032925;28;20191;-68
2021/12/07 05:51:52;;;;;;;14.80;11.80;;;1.20;1.00;;;;;;5032613;28;20229;-72
2021/12/07 05:54:17;;;;;;;25.77;12.73;;;1.30;1.00;;;;;;5032297;28;20251;-68
2021/12/07 05:56:43;;;;;;;15.90;11.37;;;1.20;1.00;;;;;;5032157;28;20214;-73
2021/12/07 05:59:09;;;;;;;21.83;9.80;;;1.20;1.00;;;;;;5033095;28;20167;-73
2021/12/07 06:01:34;;;;;;;19.03;9.80;;;1.20;1.00;;;;;;5032761;28;20262;-68
2021/12/07 06:04:00;;;;;;;17.67;11.20;;;1.30;1.00;;;;;;5031802;28;20170;-69
2021/12/07 06:06:25;;;;;;;22.10;11.43;;;1.20;1.00;;;;;;5032790;28;20192;-73
2021/12/07 06:08:51;;;;;;;24.27;10.50;;;1.20;1.00;;;;;;5031840;28;20506;-70
2021/12/07 06:11:18;;;;;;;23.73;13.87;;;1.30;1.00;;;;;;5032675;28;20195;-71
2021/12/07 06:13:44;;;;;;;15.05;9.32;;;1.30;1.00;;;;;;5032051;28;20671;-72
2021/12/07 06:16:10;;;;;;;19.53;12.43;;;1.40;1.00;;;;;;5031965;28;20199;-70
2021/12/07 06:18:36;;;;;;;25.17;12.37;;;1.30;1.00;;;;;;5032673;28;20482;-69
2021/12/07 06:21:04;;;;;;;25.00;13.00;;;1.30;1.00;;;;;;5032852;28;20175;-68
2021/12/07 06:23:30;;;;;;;21.42;12.73;;;1.30;1.00;;;;;;5030653;28;20175;-73
2021/12/07 06:25:57;;;;;;;20.00;10.20;;;1.20;1.00;;;;;;5032744;28;20191;-73
2021/12/07 06:28:22;;;;;;;23.02;12.93;;;1.20;1.00;;;;;;5031409;28;20575;-68
2021/12/07 06:30:48;;;;;;;21.67;13.57;;;1.20;1.00;;;;;;5032564;28;20191;-68
2021/12/07 06:33:17;;;;;;;17.63;12.40;;;1.20;1.00;;;;;;5031203;28;20740;-72
2021/12/07 06:35:44;;;;;;;22.55;13.18;;;1.20;1.00;;;;;;5032763;28;20596;-73
2021/12/07 06:38:10;;;;;;;12.40;9.95;;;1.30;1.00;;;;;;5032569;28;20175;-73
2021/12/07 06:40:36;;;;;;;21.20;10.57;;;1.30;1.00;;;;;;5032531;28;20164;-67
2021/12/07 06:43:02;;;;;;;16.57;9.00;;;1.30;1.00;;;;;;5030506;28;20749;-68
2021/12/07 06:45:29;;;;;;;24.40;12.25;;;1.30;1.00;;;;;;5032451;28;20788;-73
2021/12/07 06:47:56;;;;;;;14.73;10.02;;;1.40;1.00;;;;;;5032549;28;20176;-68
2021/12/07 06:50:22;;;;;;;19.00;10.60;;;1.40;1.00;;;;;;5031814;28;20730;-68
2021/12/07 06:52:48;;;;;;;18.10;11.85;;;1.30;1.00;;;;;;5031496;28;20656;-68
2021/12/07 06:55:14;;;;;;;15.50;10.90;;;1.40;1.00;;;;;;5035990;28;20191;-69
2021/12/07 06:57:39;;;;;;;18.40;12.17;;;1.30;1.00;;;;;;5036225;28;20258;-67
2021/12/07 07:00:08;;;;;;;20.90;13.33;;;1.30;1.00;;;;;;5035955;28;20171;-73
2021/12/07 07:02:34;;;;;;;14.95;11.38;;;1.40;1.00;;;;;;5035053;28;20406;-72
2021/12/07 07:05:00;;;;;;;14.93;9.47;;;1.40;1.00;;;;;;5035997;28;20185;-70
2021/12/07 07:07:26;;;;;;;17.87;11.33;;;1.40;1.00;;;;;;5035972;28;20398;-68
2021/12/07 07:09:52;;;;;;;20.57;9.73;;;1.40;1.00;;;;;;5035375;28;20805;-70
2021/12/07 07:12:18;;;;;;;16.17;10.63;;;1.30;1.00;;;;;;5034988;28;20434;-67
2021/12/07 07:14:44;;;;;;;26.75;11.40;;;1.30;1.00;;;;;;5035666;28;20406;-66
2021/12/07 07:17:10;;;;;;;18.38;11.85;;;1.40;1.00;;;;;;5035791;28;20196;-68
2021/12/07 07:19:36;;;;;;;18.80;10.47;;;1.30;1.00;;;;;;5035797;28;20164;-72
2021/12/07 07:22:02;;;;;;;17.87;11.10;;;1.30;1.00;;;;;;5034775;28;20175;-68
2021/12/07 07:24:32;;;;;;;18.63;11.50;;;1.40;1.00;;;;;;5035778;28;20247;-72
2021/12/07 07:26:59;;;;;;;19.92;11.85;;;1.40;1.00;;;;;;5035431;28;20680;-72
2021/12/07 07:29:25;;;;;;;18.73;9.55;;;1.40;1.00;;;;;;5034867;28;20237;-72
2021/12/07 07:31:51;;;;;;;22.20;10.52;;;1.40;1.00;;;;;;5035324;28;20555;-72
2021/12/07 07:34:17;;;;;;;15.73;10.50;;;1.40;1.00;;;;;;5033712;28;20258;-71
2021/12/07 07:36:43;;;;;;;15.57;10.50;;;1.40;1.00;;;;;;5035251;28;20430;-67
2021/12/07 07:39:09;;;;;;;14.05;8.23;;;1.30;1.00;;;;;;5035350;28;20156;-73
2021/12/07 07:41:35;;;;;;;21.20;10.97;;;1.40;1.00;;;;;;5035273;28;20179;-67
2021/12/07 07:44:01;;;;;;;24.53;10.20;;;1.40;1.00;;;;;;5034315;28;20186;-72
2021/12/07 07:46:26;;;;;;;12.80;8.60;;;1.40;1.00;;;;;;5034695;28;20309;-72
2021/12/07 07:48:52;;;;;;;14.80;8.10;;;1.40;1.00;;;;;;5035110;28;20256;-72
2021/12/07 07:51:18;;;;;;;15.80;9.70;;;1.40;99.90;;;;;;5035040;28;20210;-69
2021/12/07 07:53:44;;;;;;;15.57;9.07;;;1.40;99.90;;;;;;5034293;28;20175;-68
2021/12/07 07:56:09;;;;;;;22.47;10.30;;;1.30;99.90;;;;;;5034991;28;20177;-72
2021/12/07 07:58:35;;;;;;;19.37;9.60;;;1.30;99.90;;;;;;5035074;28;20662;-68
2021/12/07 08:01:01;;;;;;;12.57;7.10;;;1.40;99.90;;;;;;5034894;28;20172;-72
2021/12/07 08:03:27;;;;;;;15.47;8.20;;;1.40;99.90;;;;;;5033412;28;20171;-71
2021/12/07 08:05:53;;;;;;;18.43;10.43;;;1.40;99.90;;;;;;5034631;28;20493;-68
2021/12/07 08:08:19;;;;;;;16.77;10.13;;;1.50;99.90;;;;;;5034871;28;20167;-67
2021/12/07 08:10:46;;;;;;;21.03;9.20;;;1.50;99.90;;;;;;5034659;28;20245;-67
2021/12/07 08:13:12;;;;;;;12.13;9.00;;;1.50;99.90;;;;;;5033782;28;20406;-71
2021/12/07 08:15:42;;;;;;;21.90;10.53;;;1.50;99.90;;;;;;5034088;28;20426;-72
2021/12/07 08:18:09;;;;;;;14.70;7.70;;;1.50;99.90;;;;;;5034566;28;20888;-72
2021/12/07 08:20:36;;;;;;;11.27;8.57;;;1.50;99.90;;;;;;5034123;28;20207;-72
2021/12/07 08:23:05;;;;;;;14.68;7.90;;;1.50;99.90;;;;;;5033448;28;20525;-69
2021/12/07 08:25:33;;;;;;;15.73;9.48;;;1.50;99.90;;;;;;5034271;28;20202;-67
2021/12/07 08:27:59;;;;;;;16.08;10.05;;;1.50;99.90;;;;;;5032877;28;20172;-73
2021/12/07 08:30:25;;;;;;;16.23;10.07;;;1.50;99.90;;;;;;5034139;28;20660;-73
2021/12/07 08:32:50;;;;;;;13.40;8.10;;;1.50;99.90;;;;;;5032601;28;20378;-70
2021/12/07 08:35:18;;;;;;;11.30;7.50;;;1.50;99.90;;;;;;5034020;28;20199;-71
2021/12/07 08:37:46;;;;;;;15.18;8.88;;;1.50;99.90;;;;;;5030276;28;20183;-73
2021/12/07 08:40:18;;;;;;;11.48;8.63;;;1.50;99.90;;;;;;5033948;28;20211;-75
2021/12/07 08:42:44;;;;;;;11.60;6.90;;;1.50;99.90;;;;;;5032536;28;20641;-74
2021/12/07 08:45:10;;;;;;;14.10;7.80;;;1.50;99.90;;;;;;5034097;28;20176;-74
2021/12/07 08:47:36;;;;;;;17.42;8.13;;;1.50;99.90;;;;;;5033728;28;20648;-75
2021/12/07 08:50:05;;;;;;;16.33;9.13;;;1.50;99.90;;;;;;5033846;28;20640;-75
2021/12/07 08:52:31;;;;;;;11.48;7.35;;;1.50;99.90;;;;;;5032857;28;20535;-75
2021/12/07 09:00:27;;;;;;;14.45;8.27;;;1.60;99.90;;;;;;5033687;28;20191;-75
2021/12/07 09:02:52;;;;;;;24.30;12.60;;;1.60;99.90;;;;;;5032303;28;20199;-80
2021/12/07 09:05:18;;;;;;;13.57;8.60;;;1.70;99.90;;;;;;5033698;28;20195;-73
2021/12/07 09:07:46;;;;;;;15.77;8.77;;;1.70;99.90;;;;;;5033617;28;20167;-76
2021/12/07 09:10:12;;;;;;;15.73;9.25;;;1.70;99.90;;;;;;5033393;28;20561;-75
2021/12/07 09:12:38;;;;;;;16.77;10.00;;;1.70;99.90;;;;;;5032696;28;20168;-73
2021/12/07 09:15:05;;;;;;;13.27;7.70;;;1.80;99.90;;;;;;5032610;28;20465;-67
2021/12/07 09:17:31;;;;;;;15.27;9.30;;;1.80;99.90;;;;;;5032841;28;20493;-69
2021/12/07 09:19:56;;;;;;;12.63;9.20;;;1.90;99.90;;;;;;5033189;28;20259;-68
2021/12/07 09:22:23;;;;;;;10.67;7.53;;;2.00;99.90;;;;;;5032583;28;20175;-73
2021/12/07 09:24:48;;;;;;;17.17;9.40;;;2.00;99.90;;;;;;5033284;28;20262;-71
2021/12/07 09:27:14;;;;;;;19.63;8.33;;;2.00;99.90;;;;;;5033263;28;20513;-68
2021/12/07 09:29:40;;;;;;;13.73;8.17;;;2.00;99.90;;;;;;5023916;28;20947;-73
2021/12/07 09:32:06;;;;;;;12.20;8.70;;;2.00;99.90;;;;;;5031769;28;20751;-69
2021/12/07 09:34:31;;;;;;;22.77;9.63;;;1.90;99.90;;;;;;5033016;28;20238;-73
2021/12/07 09:36:57;;;;;;;12.67;8.37;;;1.90;99.90;;;;;;5033152;28;20810;-73
2021/12/07 09:39:24;;;;;;;12.77;8.80;;;1.90;99.90;;;;;;5032980;28;20175;-73
2021/12/07 09:41:50;;;;;;;14.10;9.73;;;1.90;99.90;;;;;;5032984;28;20546;-69
2021/12/07 09:44:15;;;;;;;17.23;9.20;;;1.90;99.90;;;;;;5024018;28;20912;-73
2021/12/07 09:46:42;;;;;;;11.07;7.10;;;2.00;99.90;;;;;;5013332;28;20274;-72
2021/12/07 09:49:09;;;;;;;13.37;8.70;;;2.10;99.90;;;;;;5013255;28;20180;-73
2021/12/07 09:51:36;;;;;;;13.23;8.87;;;2.10;99.90;;;;;;5012676;28;20455;-72
2021/12/07 09:54:04;;;;;;;13.83;7.70;;;2.00;99.90;;;;;;5012460;28;20453;-69
2021/12/07 09:56:30;;;;;;;17.93;9.13;;;1.90;99.90;;;;;;5013206;28;20415;-73
2021/12/07 09:58:59;;;;;;;12.17;8.50;;;2.00;99.90;;;;;;5013245;28;20403;-73
2021/12/07 10:01:27;;;;;;;18.03;8.00;;;2.00;99.90;;;;;;5013284;28;20541;-73
2021/12/07 10:03:52;;;;;;;15.50;9.87;;;2.10;99.90;;;;;;5012278;28;20403;-69
2021/12/07 10:06:19;;;;;;;13.10;8.87;;;2.10;99.90;;;;;;5012988;28;20427;-72
2021/12/07 10:08:45;;;;;;;16.90;8.63;;;2.10;99.90;;;;;;5012650;28;20403;-73
2021/12/07 10:11:12;;;;;;;20.93;9.23;;;2.10;99.90;;;;;;5013086;28;20470;-73
2021/12/07 10:13:43;;;;;;;10.03;8.80;;;2.20;99.90;;;;;;5012257;28;20414;-73
2021/12/07 10:16:11;;;;;;;10.10;7.27;;;2.20;99.90;;;;;;5012975;28;20543;-70
2021/12/07 10:18:38;;;;;;;14.00;8.53;;;2.30;99.90;;;;;;5013121;28;20434;-69
2021/12/07 10:21:14;;;;;;;18.30;9.50;;;2.20;99.90;;;;;;5013030;28;20480;-69
2021/12/07 10:23:45;;;;;;;19.53;8.47;;;2.20;99.90;;;;;;5012157;28;20410;-69
2021/12/07 10:26:13;;;;;;;10.03;8.53;;;2.20;99.90;;;;;;5012784;28;20518;-72
2021/12/07 10:28:40;;;;;;;14.63;9.83;;;2.10;99.90;;;;;;5015206;28;20407;-73
2021/12/07 10:31:09;;;;;;;19.63;9.83;;;2.10;99.90;;;;;;5016758;28;20451;-73
2021/12/07 10:33:36;;;;;;;10.48;8.52;;;2.10;99.90;;;;;;5015981;28;20400;-69
2021/12/07 10:36:17;;;;;;;12.90;8.73;;;2.10;99.90;;;;;;5016715;28;20184;-70
2021/12/07 10:38:49;;;;;;;12.48;9.25;;;2.20;99.90;;;;;;5016786;28;20451;-71
2021/12/07 10:41:21;;;;;;;15.20;10.23;;;2.30;99.90;;;;;;5016696;28;20244;-72
2021/12/07 10:43:55;;;;;;;16.00;9.90;;;2.50;99.90;;;;;;5015672;28;20406;-73
2021/12/07 10:46:43;;;;;;;20.30;9.70;;;2.60;99.90;;;;;;5016391;28;20480;-70
2021/12/07 10:49:14;;;;;;;11.63;8.33;;;2.60;99.90;;;;;;5015863;28;20405;-73
2021/12/07 10:51:53;;;;;;;11.53;9.50;;;2.60;99.90;;;;;;5016392;28;20455;-73
2021/12/07 10:54:21;;;;;;;20.93;9.73;;;2.60;99.90;;;;;;5014773;28;20418;-74
2021/12/07 10:56:47;;;;;;;14.63;9.37;;;2.70;99.90;;;;;;5016485;28;20848;-73
2021/12/07 10:59:13;;;;;;;12.90;9.73;;;2.80;99.90;;;;;;5016332;28;20474;-73
2021/12/07 11:01:48;;;;;;;12.93;8.50;;;2.80;99.90;;;;;;5016225;28;20168;-73
2021/12/07 11:04:30;;;;;;;18.93;11.13;;;2.80;99.90;;;;;;5030977;28;20464;-73
2021/12/07 11:07:12;;;;;;;15.13;8.50;;;2.80;99.90;;;;;;5015634;28;20418;-73
2021/12/07 11:10:05;;;;;;;19.77;10.20;;;2.80;99.90;;;;;;5016113;28;20403;-72
2021/12/07 11:12:38;;;;;;;11.67;8.30;;;2.80;99.90;;;;;;5015068;28;20927;-72
2021/12/07 11:15:12;;;;;;;16.30;8.77;;;2.80;99.90;;;;;;5016000;28;20445;-71
2021/12/07 11:17:38;;;;;;;17.40;10.47;;;2.80;99.90;;;;;;5016070;28;20399;-72
2021/12/07 11:20:05;;;;;;;17.77;9.63;;;2.70;99.90;;;;;;5016024;28;20406;-72
2021/12/07 11:22:35;;;;;;;13.13;9.63;;;2.60;99.90;;;;;;5014931;28;20199;-71
2021/12/07 11:25:03;;;;;;;14.10;9.00;;;2.60;99.90;;;;;;5015327;28;20446;-73
2021/12/07 11:30:17;;;;;;;19.33;10.77;;;2.70;99.90;;;;;;5015766;28;20488;-73
2021/12/07 11:32:56;;;;;;;18.23;9.63;;;2.60;99.90;;;;;;5014864;28;20885;-71
2021/12/07 11:35:34;;;;;;;22.27;11.03;;;2.60;99.90;;;;;;5015738;28;20414;-72
2021/12/07 11:38:04;;;;;;;18.10;8.50;;;2.50;99.90;;;;;;5015729;28;20498;-73
2021/12/07 11:40:33;;;;;;;13.60;9.60;;;2.40;99.90;;;;;;5015026;28;20888;-73
2021/12/07 11:43:00;;;;;;;23.17;10.10;;;2.40;99.90;;;;;;5014253;28;20415;-73
2021/12/07 11:45:29;;;;;;;13.83;9.27;;;2.40;99.90;;;;;;5015123;28;20518;-72
2021/12/07 11:48:04;;;;;;;11.93;8.40;;;2.40;99.90;;;;;;5015458;28;20404;-72
2021/12/07 11:50:42;;;;;;;20.20;11.07;;;2.40;99.90;;;;;;5015150;28;20549;-73
2021/12/07 11:53:12;;;;;;;16.23;10.10;;;2.40;99.90;;;;;;5014437;28;20753;-72
2021/12/07 11:55:42;;;;;;;21.90;11.13;;;2.40;99.90;;;;;;5015254;28;20419;-72
2021/12/07 11:58:09;;;;;;;11.88;8.48;;;2.40;99.90;;;;;;5015201;28;20402;-73
2021/12/07 12:00:42;;;;;;;14.33;8.87;;;2.40;99.90;;;;;;5014549;28;20255;-71
2021/12/07 12:03:15;;;;;;;16.40;10.90;;;2.40;99.90;;;;;;5014215;28;20535;-71
2021/12/07 12:05:45;;;;;;;22.45;12.18;;;2.30;99.90;;;;;;5015047;28;20415;-71
2021/12/07 12:08:14;;;;;;;17.10;10.33;;;2.30;99.90;;;;;;5015146;28;20180;-72
2021/12/07 12:10:43;;;;;;;21.20;9.27;;;2.40;99.90;;;;;;5014974;28;20482;-72
2021/12/07 12:13:24;;;;;;;21.20;10.50;;;2.40;99.90;;;;;;5013830;28;20897;-73
2021/12/07 12:16:28;;;;;;;16.13;9.27;;;2.40;99.90;;;;;;5014830;28;20411;-72
2021/12/07 12:18:57;;;;;;;21.70;11.27;;;2.50;99.90;;;;;;5014162;28;20496;-73
2021/12/07 12:21:40;;;;;;;23.40;12.27;;;2.50;99.90;;;;;;5014828;28;20418;-72
2021/12/07 12:24:18;;;;;;;15.27;11.10;;;2.50;99.90;;;;;;5013863;28;20403;-72
2021/12/07 12:26:45;;;;;;;20.43;10.70;;;2.50;99.90;;;;;;5014750;28;20426;-72
2021/12/07 12:29:23;;;;;;;14.57;10.80;;;2.50;99.90;;;;;;5014462;28;21167;-72
2021/12/07 12:31:51;;;;;;;13.27;10.93;;;2.50;99.90;;;;;;5014410;28;20195;-73
2021/12/07 12:34:28;;;;;;;15.87;10.43;;;2.50;99.90;;;;;;5013919;28;20407;-73
2021/12/07 12:37:02;;;;;;;18.63;10.23;;;2.50;99.90;;;;;;5013790;28;20433;-73
2021/12/07 12:39:46;;;;;;;13.23;8.73;;;2.50;99.90;;;;;;5014522;28;20407;-70
2021/12/07 12:42:29;;;;;;;17.37;10.33;;;2.50;99.90;;;;;;5013687;28;20957;-72
2021/12/07 12:45:04;;;;;;;19.23;11.30;;;2.60;99.90;;;;;;5014372;28;20402;-72
2021/12/07 12:47:31;;;;;;;15.77;10.50;;;2.60;99.90;;;;;;5014290;28;20788;-71
2021/12/07 12:50:11;;;;;;;16.87;10.70;;;2.50;99.90;;;;;;5014187;28;20435;-73
2021/12/07 12:52:44;;;;;;;15.00;8.90;;;2.50;99.90;;;;;;5027776;28;20426;-73
2021/12/07 12:55:39;;;;;;;17.70;9.30;;;2.50;99.90;;;;;;5013611;28;20407;-72
2021/12/07 12:58:20;;;;;;;15.80;10.87;;;2.50;99.90;;;;;;5014333;28;20399;-72
2021/12/07 13:01:04;;;;;;;14.83;11.30;;;2.50;99.90;;;;;;5014359;28;20400;-72
2021/12/07 13:03:54;;;;;;;22.93;11.17;;;2.60;99.90;;;;;;5013170;28;20888;-72
2021/12/07 13:06:31;;;;;;;16.00;9.00;;;2.50;99.90;;;;;;5013977;28;20431;-73
2021/12/07 13:09:18;;;;;;;26.33;13.37;;;2.40;99.90;;;;;;5013962;28;20398;-72
2021/12/07 13:11:54;;;;;;;16.80;11.50;;;2.50;99.90;;;;;;5013209;28;20451;-69
2021/12/07 13:14:20;;;;;;;19.47;11.37;;;2.50;99.90;;;;;;5013178;28;20406;-71
2021/12/07 13:17:02;;;;;;;20.63;12.00;;;2.40;99.90;;;;;;5013930;28;20424;-73
2021/12/07 13:19:28;;;;;;;11.77;9.33;;;2.40;99.90;;;;;;5013792;28;20156;-72
2021/12/07 13:21:56;;;;;;;20.60;10.67;;;2.30;99.90;;;;;;5013446;28;20435;-72
2021/12/07 13:24:37;;;;;;;25.33;12.13;;;2.40;99.90;;;;;;5013049;28;20809;-72
2021/12/07 13:27:10;;;;;;;19.87;11.23;;;2.50;99.90;;;;;;5013130;28;20435;-72
2021/12/07 13:29:37;;;;;;;25.73;12.40;;;2.50;99.90;;;;;;5013396;28;20410;-72
2021/12/07 13:32:05;;;;;;;21.17;12.03;;;2.50;99.90;;;;;;5012758;28;20605;-74
2021/12/07 13:34:38;;;;;;;19.27;11.13;;;2.60;99.90;;;;;;5013624;28;20431;-72
2021/12/07 13:37:06;;;;;;;14.40;10.83;;;2.70;99.90;;;;;;5013450;28;20434;-71
2021/12/07 13:39:56;;;;;;;21.00;13.00;;;2.70;99.90;;;;;;5013399;28;20410;-71
2021/12/07 13:42:25;;;;;;;18.37;10.90;;;2.60;99.90;;;;;;5012606;28;20486;-72
2021/12/07 13:45:02;;;;;;;18.97;10.83;;;2.60;99.90;;;;;;5013627;28;20425;-72
2021/12/07 13:47:30;;;;;;;25.00;12.37;;;2.50;99.90;;;;;;5012772;28;20548;-71
2021/12/07 13:50:09;;;;;;;21.73;11.67;;;2.50;99.90;;;;;;5013258;28;20423;-72
2021/12/07 13:52:40;;;;;;;16.60;11.37;;;2.50;99.90;;;;;;5012174;28;20458;-73
2021/12/07 13:55:10;;;;;;;18.47;11.90;;;2.50;99.90;;;;;;5013214;28;20784;-72
2021/12/07 13:57:39;;;;;;;29.13;14.00;;;2.50;99.90;;;;;;5013179;28;20434;-72
2021/12/07 14:00:16;;;;;;;17.10;10.27;;;2.50;99.90;;;;;;5013348;28;20399;-73
2021/12/07 14:02:55;;;;;;;28.40;12.90;;;2.50;99.90;;;;;;5012236;28;20400;-73
2021/12/07 14:05:32;;;;;;;23.63;11.97;;;2.40;99.90;;;;;;5012691;28;20426;-70
2021/12/07 14:08:00;;;;;;;31.63;12.40;;;2.30;99.90;;;;;;5013098;28;20946;-70
2021/12/07 14:10:33;;;;;;;27.03;12.97;;;2.40;99.90;;;;;;5013104;28;20877;-72
2021/12/07 14:13:03;;;;;;;20.53;11.00;;;2.30;99.90;;;;;;5012150;28;20398;-70
2021/12/07 14:15:33;;;;;;;23.53;11.80;;;2.30;99.90;;;;;;5013108;28;20502;-72
2021/12/07 14:18:24;;;;;;;19.03;10.03;;;2.30;99.90;;;;;;5013027;28;20411;-73
2021/12/07 14:20:57;;;;;;;19.73;11.60;;;2.20;99.90;;;;;;5012680;28;20466;-73
2021/12/07 14:23:26;;;;;;;18.10;11.30;;;2.20;99.90;;;;;;5012142;28;20411;-72
2021/12/07 14:26:08;;;;;;;20.53;10.60;;;2.20;99.90;;;;;;5012371;28;20506;-73
2021/12/07 14:28:43;;;;;;;17.73;10.13;;;2.30;99.90;;;;;;5012955;28;20534;-73
2021/12/07 14:31:20;;;;;;;17.47;11.03;;;2.20;99.90;;;;;;5012870;28;20449;-71
2021/12/07 14:33:56;;;;;;;22.30;12.10;;;2.20;99.90;;;;;;5012041;28;20395;-73
2021/12/07 14:36:23;;;;;;;18.10;12.30;;;2.20;99.90;;;;;;5012689;28;20419;-73
2021/12/07 14:38:51;;;;;;;16.17;11.10;;;2.20;99.90;;;;;;5013044;28;20399;-70
2021/12/07 14:41:20;;;;;;;23.47;12.07;;;2.30;99.90;;;;;;5012409;28;20403;-72